createdAt,value
2023-05-25T00:01:26.552Z,13.63
2023-05-25T00:04:05.453Z,13.66
2023-05-25T00:06:41.454Z,13.68
2023-05-25T00:09:13.709Z,13.66
2023-05-25T00:11:43.586Z,13.62
2023-05-25T00:14:16.438Z,13.63
2023-05-25T00:16:48.539Z,13.65
2023-05-25T00:19:18.851Z,13.63
2023-05-25T00:21:52.258Z,13.63
2023-05-25T00:24:22.166Z,13.63
2023-05-25T00:26:52.021Z,13.60
2023-05-25T00:29:21.840Z,13.55
2023-05-25T00:31:51.981Z,13.49
2023-05-25T00:34:22.108Z,13.45
2023-05-25T00:36:54.590Z,13.44
2023-05-25T00:39:24.600Z,13.40
2023-05-25T00:41:55.987Z,13.40
2023-05-25T00:44:25.871Z,13.41
2023-05-25T00:46:56.059Z,13.42
2023-05-25T00:49:26.019Z,13.40
2023-05-25T00:52:01.221Z,13.40
2023-05-25T00:54:33.742Z,13.41
2023-05-25T00:57:07.147Z,13.40
2023-05-25T00:59:43.515Z,13.39
2023-05-25T01:02:17.605Z,13.40
2023-05-25T01:04:52.759Z,13.40
2023-05-25T01:07:26.496Z,13.40
2023-05-25T01:10:01.839Z,13.37
2023-05-25T01:12:32.500Z,13.35
2023-05-25T01:15:04.881Z,13.36
2023-05-25T01:17:38.383Z,13.37
2023-05-25T01:20:11.948Z,13.35
2023-05-25T01:22:50.505Z,13.31
2023-05-25T01:25:30.656Z,13.32
2023-05-25T01:28:05.097Z,13.29
2023-05-25T01:30:36.199Z,13.28
2023-05-25T01:33:06.943Z,13.27
2023-05-25T01:35:42.519Z,13.25
2023-05-25T01:38:18.389Z,13.24
2023-05-25T01:40:51.129Z,13.23
2023-05-25T01:43:25.831Z,13.22
2023-05-25T01:46:01.607Z,13.21
2023-05-25T01:48:43.809Z,13.21
2023-05-25T01:51:29.481Z,13.20
2023-05-25T01:54:13.582Z,13.20
2023-05-25T01:56:49.976Z,13.24
2023-05-25T01:59:39.443Z,13.21
2023-05-25T02:02:17.553Z,13.25
2023-05-25T02:04:47.889Z,13.28
2023-05-25T02:09:51.536Z,13.30
2023-05-25T02:12:23.203Z,13.34
2023-05-25T02:14:53.087Z,13.31
2023-05-25T02:17:23.072Z,13.30
2023-05-25T02:19:56.690Z,13.30
2023-05-25T02:22:29.039Z,13.30
2023-05-25T02:25:04.268Z,13.30
2023-05-25T02:27:34.186Z,13.30
2023-05-25T02:30:05.984Z,13.30
2023-05-25T02:32:54.034Z,13.31
2023-05-25T02:35:26.136Z,13.30
2023-05-25T02:37:58.254Z,13.27
2023-05-25T03:14:25.584Z,13.12
2023-05-25T03:16:55.468Z,13.07
2023-05-25T03:19:25.336Z,13.03
2023-05-25T03:21:55.204Z,13.01
2023-05-25T03:24:25.108Z,13.00
2023-05-25T03:26:54.960Z,13.01
2023-05-25T03:29:27.486Z,12.99
2023-05-25T03:31:57.355Z,12.97
2023-05-25T03:34:27.392Z,12.96
2023-05-25T03:37:01.052Z,12.96
2023-05-25T03:39:30.906Z,12.94
2023-05-25T03:42:01.221Z,12.93
2023-05-25T03:44:33.683Z,12.92
2023-05-25T03:47:03.555Z,12.93
2023-05-25T03:49:33.572Z,12.96
2023-05-25T03:52:03.497Z,12.96
2023-05-25T03:54:33.358Z,12.97
2023-05-25T03:57:09.926Z,13.05
2023-05-25T03:59:42.425Z,13.02
2023-05-25T04:02:12.286Z,12.97
2023-05-25T04:04:45.577Z,12.96
2023-05-25T04:07:15.483Z,12.97
2023-05-25T04:09:45.355Z,12.99
2023-05-25T04:12:15.227Z,12.97
2023-05-25T04:14:47.682Z,12.99
2023-05-25T04:17:17.714Z,13.02
2023-05-25T04:19:47.609Z,13.05
2023-05-25T04:22:17.638Z,13.09
2023-05-25T04:24:47.981Z,13.14
2023-05-25T04:27:17.997Z,13.21
2023-05-25T04:29:50.914Z,13.24
2023-05-25T04:32:21.695Z,13.29
2023-05-25T04:34:51.614Z,13.37
2023-05-25T04:37:21.797Z,13.44
2023-05-25T04:39:51.831Z,13.50
2023-05-25T04:42:24.188Z,13.54
2023-05-25T04:44:56.660Z,13.57
2023-05-25T04:47:27.023Z,13.58
2023-05-25T04:49:56.904Z,13.60
2023-05-25T04:52:26.775Z,13.63
2023-05-25T04:54:56.682Z,13.69
2023-05-25T04:57:30.926Z,13.67
2023-05-25T05:00:03.505Z,13.70
2023-05-25T05:02:33.487Z,13.78
2023-05-25T05:05:04.094Z,13.75
2023-05-25T05:07:34.022Z,13.75
2023-05-25T05:10:03.867Z,13.77
2023-05-25T05:12:33.747Z,13.77
2023-05-25T05:15:06.545Z,13.83
2023-05-25T05:17:42.459Z,13.82
2023-05-25T05:20:15.295Z,13.80
2023-05-25T05:22:46.053Z,13.82
2023-05-25T05:25:15.929Z,13.85
2023-05-25T05:27:45.924Z,13.83
2023-05-25T05:30:19.201Z,13.80
2023-05-25T05:32:49.549Z,13.76
2023-05-25T05:35:19.751Z,13.77
2023-05-25T05:37:50.089Z,13.84
2023-05-25T05:40:20.116Z,13.85
2023-05-25T05:42:51.104Z,13.82
2023-05-25T05:45:23.586Z,13.78
2023-05-25T05:47:54.055Z,13.80
2023-05-25T05:50:24.447Z,13.81
2023-05-25T05:52:55.235Z,13.85
2023-05-25T05:55:25.186Z,13.85
2023-05-25T05:57:55.027Z,13.80
2023-05-25T06:00:27.846Z,13.79
2023-05-25T06:03:04.906Z,13.81
2023-05-25T06:05:34.908Z,13.90
2023-05-25T06:08:06.042Z,13.80
2023-05-25T06:10:36.197Z,13.77
2023-05-25T06:13:07.619Z,13.84
2023-05-25T06:15:40.870Z,13.80
2023-05-25T06:18:11.906Z,13.76
2023-05-25T06:20:42.163Z,13.81
2023-05-25T06:23:14.299Z,13.88
2023-05-25T06:25:46.890Z,14.02
2023-05-25T06:28:17.157Z,14.14
2023-05-25T06:30:49.651Z,14.27
2023-05-25T06:33:19.644Z,14.36
2023-05-25T06:35:51.049Z,14.39
2023-05-25T06:38:21.007Z,14.50
2023-05-25T06:40:50.813Z,14.53
2023-05-25T06:43:20.667Z,14.67
2023-05-25T06:45:54.733Z,14.75
2023-05-25T06:48:24.587Z,14.79
2023-05-25T06:50:54.457Z,14.67
2023-05-25T06:53:24.312Z,14.70
2023-05-25T06:55:54.210Z,14.76
2023-05-25T06:58:24.135Z,14.78
2023-05-25T07:00:57.745Z,14.75
2023-05-25T07:03:28.446Z,14.79
2023-05-25T07:05:58.520Z,14.87
2023-05-25T07:08:28.422Z,14.99
2023-05-25T07:10:58.299Z,15.04
2023-05-25T07:13:28.224Z,15.17
2023-05-25T07:16:00.721Z,15.29
2023-05-25T07:18:32.124Z,15.49
2023-05-25T07:21:02.372Z,15.53
2023-05-25T07:23:32.254Z,15.47
2023-05-25T07:26:04.211Z,15.42
2023-05-25T07:28:35.610Z,15.39
2023-05-25T07:31:09.720Z,15.41
2023-05-25T07:33:41.538Z,15.49
2023-05-25T07:36:12.787Z,15.45
2023-05-25T07:38:44.042Z,15.52
2023-05-25T07:41:14.904Z,15.58
2023-05-25T07:43:47.804Z,15.57
2023-05-25T07:46:25.460Z,15.67
2023-05-25T07:49:00.146Z,15.65
2023-05-25T07:51:35.994Z,15.52
2023-05-25T07:54:06.001Z,15.44
2023-05-25T07:56:35.918Z,15.54
2023-05-25T07:59:08.563Z,15.62
2023-05-25T08:01:41.072Z,15.73
2023-05-25T08:04:16.692Z,15.83
2023-05-25T08:06:53.243Z,15.95
2023-05-25T08:09:23.068Z,16.01
2023-05-25T08:12:07.710Z,16.10
2023-05-25T08:14:51.126Z,16.13
2023-05-25T08:17:23.939Z,15.99
2023-05-25T08:19:56.517Z,16.01
2023-05-25T08:22:29.266Z,16.08
2023-05-25T08:25:01.513Z,16.12
2023-05-25T08:27:33.492Z,16.14
2023-05-25T08:30:12.128Z,16.13
2023-05-25T08:32:46.838Z,16.34
2023-05-25T08:35:19.769Z,16.31
2023-05-25T08:37:49.732Z,16.47
2023-05-25T08:40:21.621Z,16.44
2023-05-25T08:42:54.211Z,16.51
2023-05-25T08:45:37.525Z,16.33
2023-05-25T08:48:31.751Z,16.38
2023-05-25T08:51:11.777Z,16.48
2023-05-25T08:53:43.739Z,16.54
2023-05-25T08:56:19.948Z,16.64
2023-05-25T08:59:01.091Z,16.50
2023-05-25T09:01:35.345Z,16.46
2023-05-25T09:04:14.330Z,16.35
2023-05-25T09:06:57.090Z,16.21
2023-05-25T09:09:32.718Z,15.91
2023-05-25T09:12:02.721Z,15.85
2023-05-25T09:14:32.807Z,15.93
2023-05-25T09:17:06.769Z,15.90
2023-05-25T09:19:39.607Z,15.75
2023-05-25T09:24:44.869Z,16.14
2023-05-25T09:27:18.404Z,16.12
2023-05-25T09:29:50.883Z,16.17
2023-05-25T09:32:21.879Z,16.01
2023-05-25T09:34:55.806Z,16.04
2023-05-25T09:37:26.232Z,15.93
2023-05-25T09:39:56.154Z,15.95
2023-05-25T09:42:26.407Z,15.96
2023-05-25T09:44:56.248Z,16.00
2023-05-25T09:47:26.137Z,15.93
2023-05-25T09:50:02.087Z,15.93
2023-05-25T09:52:31.912Z,15.78
2023-05-25T09:55:04.630Z,15.64
2023-05-25T09:57:34.533Z,15.62
2023-05-25T10:00:10.433Z,15.54
2023-05-25T10:02:41.456Z,15.42
2023-05-25T10:05:14.201Z,15.55
2023-05-25T10:07:49.326Z,15.65
2023-05-25T10:10:22.413Z,15.78
2023-05-25T10:12:55.903Z,15.71
2023-05-25T10:15:26.189Z,15.55
2023-05-25T10:17:57.998Z,15.70
2023-05-25T10:20:32.758Z,15.91
2023-05-25T10:23:08.205Z,16.07
2023-05-25T10:25:43.064Z,16.09
2023-05-25T10:28:20.322Z,15.90
2023-05-25T10:30:52.244Z,16.01
2023-05-25T10:33:24.058Z,16.04
2023-05-25T10:36:09.174Z,16.02
2023-05-25T10:38:47.885Z,15.97
2023-05-25T10:41:18.905Z,15.85
2023-05-25T10:43:55.485Z,15.76
2023-05-25T10:46:25.514Z,15.71
2023-05-25T10:49:00.914Z,15.49
2023-05-25T10:51:45.581Z,15.22
2023-05-25T10:54:19.115Z,15.14
2023-05-25T10:57:14.478Z,15.21
2023-05-25T10:59:51.133Z,15.49
2023-05-25T11:02:23.650Z,15.58
2023-05-25T11:04:53.827Z,15.57
2023-05-25T11:07:26.336Z,15.58
2023-05-25T11:10:01.773Z,15.67
2023-05-25T11:12:33.923Z,15.75
2023-05-25T11:15:17.571Z,15.78
2023-05-25T11:18:03.908Z,15.81
2023-05-25T11:20:38.317Z,15.79
2023-05-25T11:23:29.780Z,15.76
2023-05-25T11:26:08.224Z,15.55
2023-05-25T11:28:48.011Z,15.73
2023-05-25T11:31:18.005Z,15.74
2023-05-25T11:33:48.595Z,15.81
2023-05-25T11:36:20.672Z,15.96
2023-05-25T11:39:04.692Z,16.05
2023-05-25T11:41:43.806Z,16.20
2023-05-25T11:44:14.969Z,16.05
2023-05-25T11:46:49.928Z,15.76
2023-05-25T11:49:24.421Z,15.73
2023-05-25T11:51:56.975Z,15.76
2023-05-25T11:54:31.656Z,15.83
2023-05-25T11:57:02.903Z,15.86
2023-05-25T11:59:39.761Z,15.89
2023-05-25T12:02:09.752Z,15.94
2023-05-25T12:04:46.598Z,15.92
2023-05-25T12:07:16.487Z,15.84
2023-05-25T12:09:49.003Z,15.73
2023-05-25T12:12:19.734Z,15.75
2023-05-25T12:14:50.947Z,15.74
2023-05-25T12:17:21.959Z,15.78
2023-05-25T12:19:52.266Z,15.79
2023-05-25T12:22:22.962Z,15.86
2023-05-25T12:24:55.481Z,15.76
2023-05-25T12:27:26.035Z,15.71
2023-05-25T12:29:56.010Z,15.79
2023-05-25T12:32:25.950Z,15.71
2023-05-25T12:35:05.478Z,15.72
2023-05-25T12:37:36.199Z,15.65
2023-05-25T12:40:20.634Z,15.57
2023-05-25T12:42:59.091Z,15.82
2023-05-25T12:45:35.732Z,16.07
2023-05-25T12:48:05.687Z,16.13
2023-05-25T12:50:37.193Z,16.04
2023-05-25T12:53:07.661Z,16.00
2023-05-25T12:55:41.774Z,16.02
2023-05-25T12:58:31.195Z,15.83
2023-05-25T13:01:01.173Z,15.62
2023-05-25T13:03:32.686Z,15.53
2023-05-25T13:06:06.444Z,15.61
2023-05-25T13:08:36.378Z,15.67
2023-05-25T13:11:08.803Z,15.71
2023-05-25T13:13:38.658Z,15.70
2023-05-25T13:16:09.116Z,15.68
2023-05-25T13:18:39.028Z,15.63
2023-05-25T13:21:10.298Z,15.55
2023-05-25T13:23:40.203Z,15.51
2023-05-25T13:26:13.545Z,15.36
2023-05-25T13:28:43.690Z,15.43
2023-05-25T13:31:13.646Z,15.41
2023-05-25T13:33:43.527Z,15.36
2023-05-25T13:36:13.409Z,15.34
2023-05-25T13:38:43.262Z,15.38
2023-05-25T13:41:16.709Z,15.36
2023-05-25T13:43:46.656Z,15.15
2023-05-25T13:46:32.989Z,15.20
2023-05-25T13:49:04.399Z,15.11
2023-05-25T13:51:35.935Z,15.15
2023-05-25T13:54:05.932Z,15.08
2023-05-25T13:56:38.482Z,15.09
2023-05-25T13:59:08.360Z,15.12
2023-05-25T14:01:38.258Z,15.04
2023-05-25T14:04:11.979Z,14.87
2023-05-25T14:06:41.910Z,14.99
2023-05-25T14:09:13.579Z,15.10
2023-05-25T14:11:46.629Z,15.10
2023-05-25T14:14:29.990Z,15.10
2023-05-25T14:17:01.601Z,15.04
2023-05-25T14:19:33.847Z,15.11
2023-05-25T14:22:13.370Z,15.18
2023-05-25T14:24:49.809Z,15.41
2023-05-25T14:27:23.330Z,15.54
2023-05-25T14:29:58.083Z,15.63
2023-05-25T14:32:29.138Z,15.72
2023-05-25T14:35:10.419Z,15.55
2023-05-25T14:37:40.337Z,15.31
2023-05-25T14:40:11.537Z,15.22
2023-05-25T14:42:44.053Z,15.05
2023-05-25T14:45:16.124Z,15.07
2023-05-25T14:47:55.622Z,15.04
2023-05-25T14:50:34.165Z,15.19
2023-05-25T14:53:05.478Z,15.10
2023-05-25T14:55:35.342Z,14.99
2023-05-25T14:58:07.886Z,14.86
2023-05-25T15:00:37.922Z,14.90
2023-05-25T15:03:13.119Z,14.93
2023-05-25T15:05:43.933Z,15.01
2023-05-25T15:08:17.896Z,14.84
2023-05-25T15:10:47.845Z,14.80
2023-05-25T15:13:23.678Z,14.91
2023-05-25T15:15:57.909Z,14.96
2023-05-25T15:18:28.074Z,14.82
2023-05-25T15:21:00.307Z,14.80
2023-05-25T15:23:31.793Z,14.74
2023-05-25T15:26:04.480Z,14.71
2023-05-25T15:28:38.341Z,14.60
2023-05-25T15:31:11.363Z,14.59
2023-05-25T15:33:58.219Z,14.72
2023-05-25T15:36:33.235Z,14.78
2023-05-25T15:39:03.462Z,14.77
2023-05-25T15:41:45.012Z,14.83
2023-05-25T15:44:19.514Z,14.89
2023-05-25T15:46:50.595Z,14.89
2023-05-25T15:49:22.235Z,14.98
2023-05-25T15:51:53.539Z,15.04
2023-05-25T15:54:29.601Z,14.95
2023-05-25T15:57:08.609Z,14.87
2023-05-25T15:59:43.859Z,14.66
2023-05-25T16:02:16.923Z,14.45
2023-05-25T16:04:48.293Z,14.36
2023-05-25T16:07:25.583Z,14.12
2023-05-25T16:09:56.509Z,14.11
2023-05-25T16:12:28.696Z,14.17
2023-05-25T16:15:01.187Z,14.23
2023-05-25T16:17:35.774Z,14.34
2023-05-25T16:20:12.818Z,14.33
2023-05-25T16:22:42.757Z,14.32
2023-05-25T16:25:16.347Z,14.31
2023-05-25T16:27:50.966Z,14.23
2023-05-25T16:30:26.144Z,14.16
2023-05-25T16:32:59.449Z,14.11
2023-05-25T16:35:34.702Z,14.02
2023-05-25T16:38:06.861Z,14.06
2023-05-25T16:40:41.221Z,14.12
2023-05-25T16:43:11.147Z,14.12
2023-05-25T16:45:43.908Z,14.12
2023-05-25T16:48:15.606Z,14.16
2023-05-25T16:50:48.186Z,14.19
2023-05-25T16:53:20.897Z,14.11
2023-05-25T16:55:53.847Z,14.10
2023-05-25T16:58:24.963Z,14.10
2023-05-25T17:00:57.612Z,14.09
2023-05-25T17:03:35.645Z,14.13
2023-05-25T17:06:12.570Z,14.20
2023-05-25T17:09:03.872Z,14.26
2023-05-25T17:11:36.130Z,14.26
2023-05-25T17:14:06.199Z,14.28
2023-05-25T17:16:41.407Z,14.27
2023-05-25T17:19:15.380Z,14.24
2023-05-25T17:21:55.448Z,14.25
2023-05-25T17:24:25.272Z,14.10
2023-05-25T17:26:55.161Z,13.91
2023-05-25T17:29:26.650Z,13.81
2023-05-25T17:32:04.689Z,13.84
2023-05-25T17:34:34.693Z,13.79
2023-05-25T17:37:04.586Z,13.65
2023-05-25T17:39:37.909Z,13.65
2023-05-25T17:42:08.660Z,13.62
2023-05-25T17:44:42.724Z,13.66
2023-05-25T17:47:15.232Z,13.66
2023-05-25T17:50:03.485Z,13.62
2023-05-25T17:52:34.567Z,13.61
2023-05-25T17:55:09.701Z,13.54
2023-05-25T17:57:39.603Z,13.58
2023-05-25T18:00:13.632Z,13.59
2023-05-25T18:02:46.489Z,13.55
2023-05-25T18:05:16.392Z,13.57
2023-05-25T18:07:49.282Z,13.56
2023-05-25T18:10:25.570Z,13.49
2023-05-25T18:12:58.328Z,13.40
2023-05-25T18:15:35.771Z,13.34
2023-05-25T18:18:12.111Z,13.35
2023-05-25T18:20:42.866Z,13.32
2023-05-25T18:23:13.534Z,13.21
2023-05-25T18:25:43.487Z,13.21
2023-05-25T18:28:16.710Z,13.24
2023-05-25T18:30:49.381Z,13.19
2023-05-25T18:33:21.937Z,13.10
2023-05-25T18:35:51.805Z,12.84
2023-05-25T18:38:24.176Z,12.91
2023-05-25T18:40:56.505Z,12.95
2023-05-25T18:43:26.395Z,12.97
2023-05-25T18:45:56.339Z,12.99
2023-05-25T18:48:28.845Z,12.88
2023-05-25T18:51:03.308Z,12.77
2023-05-25T18:53:34.213Z,12.77
2023-05-25T18:56:06.436Z,12.80
2023-05-25T18:58:36.309Z,12.80
2023-05-25T19:01:16.097Z,12.75
2023-05-25T19:03:58.767Z,12.74
2023-05-25T19:06:33.749Z,12.76
2023-05-25T19:09:06.880Z,12.69
2023-05-25T19:11:40.128Z,12.59
2023-05-25T19:14:10.077Z,12.54
2023-05-25T19:16:42.693Z,12.51
2023-05-25T19:19:15.170Z,12.46
2023-05-25T19:21:49.451Z,12.48
2023-05-25T19:24:20.048Z,12.42
2023-05-25T19:26:50.078Z,12.42
2023-05-25T19:29:23.523Z,12.37
2023-05-25T19:31:54.774Z,12.39
2023-05-25T19:34:30.344Z,12.38
2023-05-25T19:37:10.596Z,12.30
2023-05-25T19:39:41.313Z,12.18
2023-05-25T19:42:18.731Z,12.13
2023-05-25T19:44:48.569Z,12.16
2023-05-25T19:47:18.456Z,12.12
2023-05-25T19:50:00.054Z,12.12
2023-05-25T19:52:31.012Z,12.11
2023-05-25T19:55:00.861Z,12.08
2023-05-25T19:57:33.365Z,12.09
2023-05-25T20:00:04.667Z,12.05
2023-05-25T20:02:41.782Z,12.02
2023-05-25T20:05:14.556Z,11.97
2023-05-25T20:07:47.603Z,11.90
2023-05-25T20:10:26.421Z,11.89
2023-05-25T20:13:00.828Z,11.94
2023-05-25T20:15:51.317Z,11.87
2023-05-25T20:18:21.262Z,11.91
2023-05-25T20:20:59.462Z,11.90
2023-05-25T20:23:30.504Z,11.80
2023-05-25T20:26:00.388Z,11.77
2023-05-25T20:28:30.237Z,11.68
2023-05-25T20:31:03.114Z,11.60
2023-05-25T20:33:33.066Z,11.57
2023-05-25T20:36:05.564Z,11.62
2023-05-25T20:38:35.385Z,11.70
2023-05-25T20:41:05.231Z,11.81
2023-05-25T20:43:38.229Z,11.80
2023-05-25T20:46:11.672Z,11.76
2023-05-25T20:48:45.901Z,11.77
2023-05-25T20:51:18.388Z,11.75
2023-05-25T20:53:49.587Z,11.73
2023-05-25T20:56:26.820Z,11.76
2023-05-25T21:13:41.244Z,11.70
2023-05-25T21:16:11.227Z,11.60
2023-05-25T21:18:41.117Z,11.60
2023-05-25T21:21:11.499Z,11.55
2023-05-25T21:23:41.677Z,11.56
2023-05-25T21:26:11.752Z,11.64
2023-05-25T21:28:46.555Z,11.67
2023-05-25T21:31:16.500Z,11.63
2023-05-25T21:33:47.598Z,11.58
2023-05-25T21:36:17.672Z,11.61
2023-05-25T21:38:47.641Z,11.55
2023-05-25T21:41:17.986Z,11.57
2023-05-25T21:43:51.074Z,11.59
2023-05-25T21:46:21.005Z,11.59
2023-05-25T21:48:50.943Z,11.58
2023-05-25T21:51:20.810Z,11.59
2023-05-25T21:53:50.822Z,11.59
2023-05-25T21:56:21.140Z,11.62
2023-05-25T21:58:53.681Z,11.59
2023-05-25T22:01:23.764Z,11.48
2023-05-25T22:03:53.871Z,11.48
2023-05-25T22:06:23.763Z,11.41
2023-05-25T22:08:53.679Z,11.33
2023-05-25T22:11:24.720Z,11.26
2023-05-25T22:13:57.815Z,11.30
2023-05-25T22:16:27.807Z,11.35
2023-05-25T22:19:02.249Z,11.41
2023-05-25T22:21:32.123Z,11.39
2023-05-25T22:24:02.366Z,11.40
2023-05-25T22:26:32.257Z,11.41
2023-05-25T22:29:04.787Z,11.44
2023-05-25T22:31:34.731Z,11.43
2023-05-25T22:34:05.461Z,11.43
2023-05-25T22:36:37.481Z,11.45
2023-05-25T22:39:07.584Z,11.45
2023-05-25T22:41:37.532Z,11.44
2023-05-25T22:44:10.195Z,11.49
2023-05-25T22:46:40.182Z,11.48
2023-05-25T22:49:10.148Z,11.48
2023-05-25T22:51:40.909Z,11.43
2023-05-25T22:54:10.765Z,11.45
2023-05-25T22:56:40.640Z,11.36
2023-05-25T22:59:13.111Z,11.38
2023-05-25T23:01:43.039Z,11.39
2023-05-25T23:04:13.149Z,11.43
2023-05-25T23:06:43.928Z,11.45
2023-05-25T23:09:13.972Z,11.45
2023-05-25T23:11:43.797Z,11.40
2023-05-25T23:14:21.604Z,11.41
2023-05-25T23:16:51.440Z,11.41
2023-05-25T23:19:21.334Z,11.38
2023-05-25T23:21:51.605Z,11.34
2023-05-25T23:24:21.473Z,11.37
2023-05-25T23:26:52.807Z,11.39
2023-05-25T23:29:25.289Z,11.39
2023-05-25T23:31:55.172Z,11.46
2023-05-25T23:34:25.782Z,11.40
2023-05-25T23:36:57.976Z,11.31
2023-05-25T23:39:28.003Z,11.32
2023-05-25T23:41:57.883Z,11.35
2023-05-25T23:44:30.313Z,11.32
2023-05-25T23:47:00.204Z,11.36
2023-05-25T23:49:30.061Z,11.35
2023-05-25T23:52:00.009Z,11.36
2023-05-25T23:54:29.891Z,11.37
2023-05-25T23:56:59.824Z,11.31
2023-05-25T23:59:34.575Z,11.22
